VLG29GR LFPO-LEZL
Flight info
| Callsign | VLG29GR |
|---|---|
| Flight time | N/A |
| Altitude | 37000 |
| Route | AGOPA DCT ARKIP DCT ARMAL DCT ARTAX DCT BEBIX DCT LMG DCT UVELI DCT OSMOB DCT VAVIX DCT NETUK N857 ALEPO DCT VASUM N857 HIJ |
| Aircraft | A320/M-SDE3FGHIRWY/LB1 |
Departure
| Time | 2026-05-08 08:06 |
|---|---|
| Airport | Paris-Orly Airport (LFPO) |
Arrival
| Time | N/A |
|---|---|
| Airport | Seville Airport (LEZL) |
| Time | Latitude | Longitude | Altitude | Speed | Heading |
|---|---|---|---|---|---|
| 2026-05-08 07:26 | 48.73101 | 2.35926 | 295 ft | 0 kts | 166° |
| 2026-05-08 07:55 | 48.73113 | 2.35921 | 293 ft | 3 kts | 166° |
| 2026-05-08 07:55 | 48.73130 | 2.35914 | 295 ft | 3 kts | 166° |
| 2026-05-08 07:55 | 48.73152 | 2.35907 | 293 ft | 3 kts | 181° |
| 2026-05-08 07:56 | 48.73168 | 2.35915 | 295 ft | 2 kts | 237° |
| 2026-05-08 07:56 | 48.73177 | 2.35936 | 294 ft | 0 kts | 237° |
| 2026-05-08 08:00 | 48.73172 | 2.35924 | 289 ft | 3 kts | 237° |
| 2026-05-08 08:00 | 48.73158 | 2.35890 | 292 ft | 5 kts | 237° |
| 2026-05-08 08:00 | 48.73135 | 2.35836 | 292 ft | 7 kts | 237° |
| 2026-05-08 08:01 | 48.73104 | 2.35762 | 292 ft | 9 kts | 237° |
| 2026-05-08 08:01 | 48.73064 | 2.35669 | 291 ft | 12 kts | 237° |
| 2026-05-08 08:01 | 48.73014 | 2.35558 | 292 ft | 14 kts | 227° |
| 2026-05-08 08:01 | 48.72926 | 2.35513 | 295 ft | 12 kts | 208° |
| 2026-05-08 08:02 | 48.72864 | 2.35428 | 290 ft | 13 kts | 176° |
| 2026-05-08 08:02 | 48.72766 | 2.35470 | 294 ft | 16 kts | 164° |
| 2026-05-08 08:02 | 48.72650 | 2.35519 | 293 ft | 19 kts | 165° |
| 2026-05-08 08:02 | 48.72532 | 2.35568 | 291 ft | 15 kts | 164° |
| 2026-05-08 08:03 | 48.72420 | 2.35616 | 292 ft | 18 kts | 164° |
| 2026-05-08 08:03 | 48.72303 | 2.35627 | 293 ft | 14 kts | 201° |
| 2026-05-08 08:03 | 48.72206 | 2.35609 | 293 ft | 15 kts | 166° |
| 2026-05-08 08:03 | 48.72133 | 2.35641 | 293 ft | 11 kts | 165° |
| 2026-05-08 08:04 | 48.72057 | 2.35691 | 294 ft | 13 kts | 136° |
| 2026-05-08 08:04 | 48.72005 | 2.35818 | 292 ft | 16 kts | 120° |
| 2026-05-08 08:04 | 48.71961 | 2.35934 | 292 ft | 10 kts | 112° |
| 2026-05-08 08:04 | 48.71964 | 2.35977 | 291 ft | 1 kts | 71° |
| 2026-05-08 08:05 | 48.71989 | 2.36110 | 295 ft | 41 kts | 74° |
| 2026-05-08 08:05 | 48.72128 | 2.36867 | 291 ft | 105 kts | 74° |
| 2026-05-08 08:05 | 48.72374 | 2.38185 | 299 ft | 152 kts | 73° |
| 2026-05-08 08:05 | 48.72682 | 2.39767 | 795 ft | 155 kts | 74° |
| 2026-05-08 08:06 | 48.72986 | 2.41347 | 1363 ft | 158 kts | 75° |
| 2026-05-08 08:06 | 48.73294 | 2.42981 | 2029 ft | 162 kts | 75° |
| 2026-05-08 08:06 | 48.73594 | 2.44614 | 2686 ft | 160 kts | 76° |
| 2026-05-08 08:06 | 48.73887 | 2.46240 | 3347 ft | 159 kts | 76° |
| 2026-05-08 08:07 | 48.74100 | 2.47943 | 3792 ft | 175 kts | 84° |
| 2026-05-08 08:07 | 48.74186 | 2.49891 | 4083 ft | 196 kts | 87° |
| 2026-05-08 08:07 | 48.74250 | 2.52077 | 4343 ft | 218 kts | 87° |
| 2026-05-08 08:07 | 48.74318 | 2.54498 | 4658 ft | 243 kts | 87° |
| 2026-05-08 08:08 | 48.74115 | 2.57135 | 5115 ft | 264 kts | 114° |
| 2026-05-08 08:08 | 48.72922 | 2.59260 | 5900 ft | 273 kts | 147° |
| 2026-05-08 08:08 | 48.71176 | 2.60422 | 6798 ft | 277 kts | 163° |
| 2026-05-08 08:08 | 48.69296 | 2.61134 | 7671 ft | 280 kts | 169° |
| 2026-05-08 08:09 | 48.67372 | 2.61684 | 8542 ft | 283 kts | 177° |
| 2026-05-08 08:09 | 48.65442 | 2.61418 | 9379 ft | 284 kts | 198° |
| 2026-05-08 08:09 | 48.63686 | 2.60094 | 10219 ft | 284 kts | 216° |
| 2026-05-08 08:09 | 48.62015 | 2.58315 | 10553 ft | 305 kts | 217° |
| 2026-05-08 08:10 | 48.60228 | 2.56379 | 10858 ft | 324 kts | 217° |
| 2026-05-08 08:10 | 48.58380 | 2.54370 | 11499 ft | 330 kts | 217° |
| 2026-05-08 08:10 | 48.56506 | 2.52337 | 12214 ft | 333 kts | 216° |
| 2026-05-08 08:10 | 48.54614 | 2.50291 | 12940 ft | 336 kts | 216° |
| 2026-05-08 08:11 | 48.52704 | 2.48233 | 13676 ft | 339 kts | 216° |
| 2026-05-08 08:11 | 48.50775 | 2.46160 | 14327 ft | 342 kts | 216° |
| 2026-05-08 08:11 | 48.48828 | 2.44070 | 14959 ft | 345 kts | 216° |
| 2026-05-08 08:11 | 48.46866 | 2.41961 | 15589 ft | 348 kts | 216° |
| 2026-05-08 08:12 | 48.44886 | 2.39834 | 16206 ft | 351 kts | 216° |
| 2026-05-08 08:12 | 48.42890 | 2.37693 | 16828 ft | 354 kts | 216° |
| 2026-05-08 08:12 | 48.40877 | 2.35535 | 17442 ft | 357 kts | 216° |
| 2026-05-08 08:12 | 48.38844 | 2.33360 | 18052 ft | 360 kts | 216° |
| 2026-05-08 08:13 | 48.36793 | 2.31172 | 18620 ft | 363 kts | 216° |
| 2026-05-08 08:13 | 48.34725 | 2.28967 | 19182 ft | 366 kts | 216° |
| 2026-05-08 08:13 | 48.32643 | 2.26748 | 19747 ft | 368 kts | 216° |
| 2026-05-08 08:13 | 48.30546 | 2.24514 | 20313 ft | 371 kts | 216° |
| 2026-05-08 08:14 | 48.28436 | 2.22269 | 20859 ft | 373 kts | 216° |
| 2026-05-08 08:14 | 48.26309 | 2.20008 | 21379 ft | 376 kts | 216° |
| 2026-05-08 08:14 | 48.24171 | 2.17734 | 21897 ft | 378 kts | 216° |
| 2026-05-08 08:14 | 48.22016 | 2.15444 | 22406 ft | 381 kts | 216° |
| 2026-05-08 08:15 | 48.19848 | 2.13140 | 22897 ft | 383 kts | 216° |
| 2026-05-08 08:15 | 48.17668 | 2.10827 | 23424 ft | 385 kts | 216° |
| 2026-05-08 08:15 | 48.15472 | 2.08501 | 23873 ft | 388 kts | 216° |
| 2026-05-08 08:15 | 48.13293 | 2.06196 | 24276 ft | 390 kts | 216° |
| 2026-05-08 08:16 | 48.11016 | 2.03956 | 24665 ft | 394 kts | 210° |
| 2026-05-08 08:16 | 48.08491 | 2.02314 | 25046 ft | 399 kts | 200° |
| 2026-05-08 08:16 | 48.05766 | 2.01408 | 25432 ft | 405 kts | 189° |
| 2026-05-08 08:16 | 48.02933 | 2.01278 | 25809 ft | 411 kts | 180° |
| 2026-05-08 08:17 | 48.00070 | 2.01463 | 26183 ft | 413 kts | 180° |
| 2026-05-08 08:17 | 47.97184 | 2.01640 | 26526 ft | 417 kts | 180° |
| 2026-05-08 08:17 | 47.94275 | 2.01816 | 26875 ft | 420 kts | 181° |
| 2026-05-08 08:17 | 47.91344 | 2.01988 | 27228 ft | 423 kts | 181° |
| 2026-05-08 08:18 | 47.88394 | 2.02160 | 27586 ft | 426 kts | 181° |
| 2026-05-08 08:18 | 47.85421 | 2.02330 | 27943 ft | 429 kts | 181° |
| 2026-05-08 08:18 | 47.82428 | 2.02506 | 28303 ft | 432 kts | 181° |
| 2026-05-08 08:18 | 47.79415 | 2.02685 | 28653 ft | 435 kts | 181° |
| 2026-05-08 08:19 | 47.76379 | 2.02863 | 28926 ft | 440 kts | 181° |
| 2026-05-08 08:19 | 47.73305 | 2.03041 | 29217 ft | 444 kts | 181° |
| 2026-05-08 08:19 | 47.70206 | 2.03222 | 29543 ft | 447 kts | 181° |
| 2026-05-08 08:19 | 47.67086 | 2.03409 | 29873 ft | 450 kts | 181° |
| 2026-05-08 08:20 | 47.63942 | 2.03599 | 30182 ft | 454 kts | 181° |
| 2026-05-08 08:20 | 47.60778 | 2.03784 | 30472 ft | 456 kts | 181° |
| 2026-05-08 08:20 | 47.57604 | 2.03963 | 30843 ft | 457 kts | 181° |
| 2026-05-08 08:20 | 47.54428 | 2.04141 | 31222 ft | 457 kts | 181° |
| 2026-05-08 08:21 | 47.51249 | 2.04324 | 31621 ft | 457 kts | 181° |
| 2026-05-08 08:21 | 47.48075 | 2.04508 | 32054 ft | 456 kts | 181° |
| 2026-05-08 08:21 | 47.44906 | 2.04690 | 32495 ft | 455 kts | 181° |
| 2026-05-08 08:21 | 47.41743 | 2.04872 | 32944 ft | 454 kts | 182° |
| 2026-05-08 08:22 | 47.38588 | 2.05053 | 33394 ft | 454 kts | 182° |
| 2026-05-08 08:22 | 47.35436 | 2.05211 | 33809 ft | 452 kts | 185° |
| 2026-05-08 08:22 | 47.32321 | 2.04872 | 34174 ft | 447 kts | 194° |
| 2026-05-08 08:22 | 47.29306 | 2.04105 | 34526 ft | 445 kts | 194° |
| 2026-05-08 08:23 | 47.26254 | 2.03323 | 34887 ft | 445 kts | 194° |
| 2026-05-08 08:23 | 47.23209 | 2.02547 | 35248 ft | 444 kts | 194° |
| 2026-05-08 08:23 | 47.20171 | 2.01775 | 35604 ft | 443 kts | 194° |
| 2026-05-08 08:23 | 47.17138 | 2.01009 | 35958 ft | 442 kts | 194° |
| 2026-05-08 08:24 | 47.14110 | 2.00247 | 36270 ft | 442 kts | 194° |
| 2026-05-08 08:24 | 47.11082 | 1.99486 | 36577 ft | 441 kts | 194° |
| 2026-05-08 08:24 | 47.08055 | 1.98726 | 36894 ft | 441 kts | 194° |
| 2026-05-08 08:24 | 47.05028 | 1.97966 | 37000 ft | 443 kts | 194° |
| 2026-05-08 08:25 | 47.01983 | 1.97202 | 37003 ft | 445 kts | 194° |
| 2026-05-08 08:25 | 46.95876 | 1.95664 | 37012 ft | 446 kts | 194° |
| 2026-05-08 08:26 | 46.89755 | 1.94130 | 36997 ft | 447 kts | 194° |
| 2026-05-08 08:26 | 46.83629 | 1.92604 | 36996 ft | 447 kts | 194° |
| 2026-05-08 08:27 | 46.77545 | 1.90862 | 37009 ft | 441 kts | 204° |
| 2026-05-08 08:27 | 46.74825 | 1.88914 | 37009 ft | 433 kts | 217° |
| 2026-05-08 08:27 | 46.72290 | 1.86547 | 37020 ft | 433 kts | 217° |
| 2026-05-08 08:28 | 46.67231 | 1.81775 | 37015 ft | 434 kts | 217° |
| 2026-05-08 08:28 | 46.62166 | 1.76998 | 37014 ft | 434 kts | 217° |
| 2026-05-08 08:29 | 46.57091 | 1.72225 | 37011 ft | 434 kts | 217° |
| 2026-05-08 08:29 | 46.52011 | 1.67464 | 36984 ft | 435 kts | 217° |
| 2026-05-08 08:30 | 46.47786 | 1.63513 | 36994 ft | 435 kts | 217° |
| 2026-05-08 08:30 | 46.39333 | 1.55626 | 37006 ft | 435 kts | 217° |
| 2026-05-08 08:31 | 46.34246 | 1.50895 | 36994 ft | 434 kts | 217° |
| 2026-05-08 08:31 | 46.29984 | 1.46943 | 36998 ft | 434 kts | 217° |
| 2026-05-08 08:32 | 46.24897 | 1.42241 | 37003 ft | 434 kts | 217° |
| 2026-05-08 08:32 | 46.19846 | 1.37573 | 37004 ft | 434 kts | 217° |
| 2026-05-08 08:33 | 46.14762 | 1.32887 | 36997 ft | 434 kts | 217° |
| 2026-05-08 08:33 | 46.09676 | 1.28214 | 37002 ft | 433 kts | 217° |
| 2026-05-08 08:34 | 46.04595 | 1.23546 | 37007 ft | 433 kts | 217° |
| 2026-05-08 08:34 | 45.99513 | 1.18889 | 37014 ft | 433 kts | 217° |
| 2026-05-08 08:35 | 45.94435 | 1.14247 | 37017 ft | 432 kts | 217° |
| 2026-05-08 08:35 | 45.89370 | 1.09632 | 37027 ft | 430 kts | 217° |
| 2026-05-08 08:36 | 45.84320 | 1.05040 | 37024 ft | 429 kts | 217° |
| 2026-05-08 08:36 | 45.79513 | 1.00076 | 37019 ft | 423 kts | 225° |
| 2026-05-08 08:37 | 45.75032 | 0.94691 | 37013 ft | 423 kts | 225° |
| 2026-05-08 08:37 | 45.70522 | 0.89294 | 37000 ft | 422 kts | 225° |
| 2026-05-08 08:38 | 45.66014 | 0.83919 | 36998 ft | 422 kts | 225° |
| 2026-05-08 08:38 | 45.61508 | 0.78548 | 36996 ft | 422 kts | 225° |
| 2026-05-08 08:39 | 45.57005 | 0.73192 | 36969 ft | 421 kts | 224° |
| 2026-05-08 08:39 | 45.52511 | 0.67862 | 36992 ft | 419 kts | 224° |
| 2026-05-08 08:40 | 45.48024 | 0.62556 | 37000 ft | 419 kts | 224° |
| 2026-05-08 08:40 | 45.43546 | 0.57265 | 36995 ft | 418 kts | 224° |
| 2026-05-08 08:41 | 45.39071 | 0.51986 | 36992 ft | 418 kts | 224° |
| 2026-05-08 08:41 | 45.34595 | 0.46724 | 36985 ft | 417 kts | 224° |
| 2026-05-08 08:42 | 45.30120 | 0.41478 | 36984 ft | 417 kts | 224° |
| 2026-05-08 08:42 | 45.25649 | 0.36232 | 36974 ft | 417 kts | 223° |
| 2026-05-08 08:43 | 45.21175 | 0.31005 | 36972 ft | 417 kts | 223° |
| 2026-05-08 08:43 | 45.16696 | 0.25789 | 36957 ft | 416 kts | 223° |
| 2026-05-08 08:44 | 45.12219 | 0.20580 | 36965 ft | 416 kts | 223° |
| 2026-05-08 08:44 | 45.07740 | 0.15379 | 36970 ft | 416 kts | 223° |
| 2026-05-08 08:45 | 45.03258 | 0.10192 | 36974 ft | 416 kts | 223° |
| 2026-05-08 08:45 | 44.98782 | 0.05004 | 36951 ft | 416 kts | 223° |
| 2026-05-08 08:46 | 44.94304 | -0.00171 | 36973 ft | 416 kts | 222° |
| 2026-05-08 08:46 | 44.89826 | -0.05331 | 36973 ft | 415 kts | 222° |
| 2026-05-08 08:47 | 44.85346 | -0.10473 | 36978 ft | 415 kts | 222° |
| 2026-05-08 08:47 | 44.80872 | -0.15603 | 36977 ft | 415 kts | 222° |
| 2026-05-08 08:48 | 44.76429 | -0.20697 | 36974 ft | 415 kts | 222° |
| 2026-05-08 08:48 | 44.71954 | -0.25810 | 36973 ft | 414 kts | 222° |
| 2026-05-08 08:49 | 44.67476 | -0.30922 | 36969 ft | 415 kts | 222° |
| 2026-05-08 08:49 | 44.62940 | -0.35929 | 36969 ft | 416 kts | 219° |
| 2026-05-08 08:50 | 44.58173 | -0.40536 | 36960 ft | 416 kts | 217° |
| 2026-05-08 08:50 | 44.53339 | -0.45008 | 36964 ft | 416 kts | 217° |
| 2026-05-08 08:51 | 44.48543 | -0.49536 | 36968 ft | 415 kts | 218° |
| 2026-05-08 08:51 | 44.43780 | -0.54110 | 36965 ft | 415 kts | 218° |
| 2026-05-08 08:52 | 44.39024 | -0.58682 | 36955 ft | 415 kts | 217° |
| 2026-05-08 08:52 | 44.34263 | -0.63224 | 36955 ft | 414 kts | 217° |
| 2026-05-08 08:53 | 44.29507 | -0.67751 | 36957 ft | 413 kts | 217° |
| 2026-05-08 08:53 | 44.24744 | -0.72251 | 36959 ft | 413 kts | 217° |
| 2026-05-08 08:54 | 44.19944 | -0.76662 | 36954 ft | 413 kts | 215° |
| 2026-05-08 08:54 | 44.15138 | -0.81042 | 36969 ft | 412 kts | 216° |
| 2026-05-08 08:55 | 44.10349 | -0.85420 | 36956 ft | 412 kts | 216° |
| 2026-05-08 08:55 | 44.05565 | -0.89796 | 36955 ft | 411 kts | 216° |
| 2026-05-08 08:56 | 44.00818 | -0.94136 | 36951 ft | 411 kts | 216° |
| 2026-05-08 08:56 | 43.96048 | -0.98493 | 36956 ft | 410 kts | 216° |
| 2026-05-08 08:57 | 43.91280 | -1.02833 | 36959 ft | 410 kts | 215° |
| 2026-05-08 08:57 | 43.86517 | -1.07165 | 36958 ft | 409 kts | 215° |
| 2026-05-08 08:58 | 43.81466 | -1.10811 | 36948 ft | 412 kts | 205° |
| 2026-05-08 08:58 | 43.76155 | -1.13794 | 36956 ft | 412 kts | 205° |
| 2026-05-08 08:59 | 43.70844 | -1.16758 | 36966 ft | 411 kts | 204° |
| 2026-05-08 08:59 | 43.65538 | -1.19711 | 36965 ft | 411 kts | 204° |
| 2026-05-08 09:00 | 43.60233 | -1.22649 | 36957 ft | 410 kts | 204° |
| 2026-05-08 09:00 | 43.54942 | -1.25588 | 36943 ft | 410 kts | 204° |
| 2026-05-08 09:01 | 43.49660 | -1.28530 | 36942 ft | 409 kts | 204° |
| 2026-05-08 09:01 | 43.44379 | -1.31452 | 36938 ft | 409 kts | 204° |
| 2026-05-08 09:02 | 43.39103 | -1.34368 | 36938 ft | 408 kts | 204° |
| 2026-05-08 09:02 | 43.33834 | -1.37270 | 36942 ft | 407 kts | 204° |
| 2026-05-08 09:03 | 43.28612 | -1.40136 | 36932 ft | 406 kts | 204° |
| 2026-05-08 09:03 | 43.23360 | -1.43014 | 36943 ft | 407 kts | 204° |
| 2026-05-08 09:04 | 43.18108 | -1.45890 | 36949 ft | 406 kts | 203° |
| 2026-05-08 09:04 | 43.12861 | -1.48755 | 36954 ft | 406 kts | 203° |
| 2026-05-08 09:05 | 43.07623 | -1.51619 | 36959 ft | 405 kts | 203° |
| 2026-05-08 09:05 | 43.02386 | -1.54474 | 36971 ft | 405 kts | 203° |
| 2026-05-08 09:06 | 42.97150 | -1.57322 | 36969 ft | 405 kts | 202° |
| 2026-05-08 09:06 | 42.91911 | -1.60167 | 36964 ft | 405 kts | 202° |
| 2026-05-08 09:07 | 42.86671 | -1.63009 | 36978 ft | 405 kts | 202° |
| 2026-05-08 09:07 | 42.81430 | -1.65846 | 37005 ft | 405 kts | 202° |
| 2026-05-08 09:08 | 42.76185 | -1.68672 | 37005 ft | 405 kts | 202° |
| 2026-05-08 09:08 | 42.70981 | -1.71624 | 37004 ft | 405 kts | 205° |
| 2026-05-08 09:09 | 42.65932 | -1.75024 | 37002 ft | 405 kts | 207° |
| 2026-05-08 09:09 | 42.60924 | -1.78536 | 36996 ft | 405 kts | 207° |
| 2026-05-08 09:10 | 42.55892 | -1.81983 | 36970 ft | 405 kts | 207° |
| 2026-05-08 09:10 | 42.50832 | -1.85371 | 36970 ft | 406 kts | 206° |
| 2026-05-08 09:11 | 42.45791 | -1.88717 | 36961 ft | 406 kts | 206° |
| 2026-05-08 09:11 | 42.40716 | -1.92095 | 36972 ft | 407 kts | 206° |
| 2026-05-08 09:12 | 42.35639 | -1.95476 | 36974 ft | 407 kts | 206° |
| 2026-05-08 09:12 | 42.30564 | -1.98852 | 36980 ft | 406 kts | 206° |
| 2026-05-08 09:13 | 42.25499 | -2.02232 | 36973 ft | 406 kts | 206° |
| 2026-05-08 09:13 | 42.20430 | -2.05591 | 36967 ft | 406 kts | 206° |
| 2026-05-08 09:14 | 42.15359 | -2.08926 | 36981 ft | 405 kts | 206° |
| 2026-05-08 09:14 | 42.10298 | -2.12263 | 36979 ft | 404 kts | 206° |
| 2026-05-08 09:15 | 42.05249 | -2.15590 | 36982 ft | 404 kts | 206° |
| 2026-05-08 09:15 | 42.00204 | -2.18909 | 36965 ft | 404 kts | 206° |
| 2026-05-08 09:16 | 41.95160 | -2.22229 | 36968 ft | 404 kts | 206° |
| 2026-05-08 09:16 | 41.90120 | -2.25537 | 36982 ft | 403 kts | 206° |
| 2026-05-08 09:17 | 41.85078 | -2.28831 | 36973 ft | 403 kts | 206° |
| 2026-05-08 09:17 | 41.80035 | -2.32115 | 36997 ft | 403 kts | 205° |
| 2026-05-08 09:18 | 41.74997 | -2.35400 | 36991 ft | 403 kts | 205° |
| 2026-05-08 09:18 | 41.69961 | -2.38686 | 36990 ft | 402 kts | 205° |
| 2026-05-08 09:19 | 41.64926 | -2.41952 | 36992 ft | 402 kts | 205° |